sensor_id;sensor_type;location;lat;lon;timestamp;temperature;humidity
5639;DHT22;2841;44.526;11.360;2022-11-20T00:02:20;9.90;99.90
5639;DHT22;2841;44.526;11.360;2022-11-20T00:04:47;9.90;99.90
5639;DHT22;2841;44.526;11.360;2022-11-20T00:07:16;9.90;99.90
5639;DHT22;2841;44.526;11.360;2022-11-20T00:09:43;9.90;99.90
5639;DHT22;2841;44.526;11.360;2022-11-20T00:12:10;9.90;99.90
5639;DHT22;2841;44.526;11.360;2022-11-20T00:14:37;9.90;99.90
5639;DHT22;2841;44.526;11.360;2022-11-20T00:17:04;9.90;99.90
5639;DHT22;2841;44.526;11.360;2022-11-20T00:19:31;9.90;99.90
5639;DHT22;2841;44.526;11.360;2022-11-20T00:21:58;9.90;99.90
5639;DHT22;2841;44.526;11.360;2022-11-20T00:24:27;9.90;99.90
5639;DHT22;2841;44.526;11.360;2022-11-20T00:26:54;9.90;99.90
5639;DHT22;2841;44.526;11.360;2022-11-20T00:29:21;9.90;99.90
5639;DHT22;2841;44.526;11.360;2022-11-20T00:31:48;9.80;99.90
5639;DHT22;2841;44.526;11.360;2022-11-20T00:34:15;9.80;99.90
5639;DHT22;2841;44.526;11.360;2022-11-20T00:36:42;9.80;99.90
5639;DHT22;2841;44.526;11.360;2022-11-20T00:39:09;9.80;99.90
5639;DHT22;2841;44.526;11.360;2022-11-20T00:41:38;9.80;99.90
5639;DHT22;2841;44.526;11.360;2022-11-20T00:44:05;9.80;99.90
5639;DHT22;2841;44.526;11.360;2022-11-20T00:46:32;9.80;99.90
5639;DHT22;2841;44.526;11.360;2022-11-20T00:48:59;9.80;99.90
5639;DHT22;2841;44.526;11.360;2022-11-20T00:51:27;9.80;99.90
5639;DHT22;2841;44.526;11.360;2022-11-20T00:53:55;9.70;99.90
5639;DHT22;2841;44.526;11.360;2022-11-20T00:56:23;9.70;99.90
5639;DHT22;2841;44.526;11.360;2022-11-20T00:58:51;9.70;99.90
5639;DHT22;2841;44.526;11.360;2022-11-20T01:01:20;9.70;99.90
5639;DHT22;2841;44.526;11.360;2022-11-20T01:03:49;9.60;99.90
5639;DHT22;2841;44.526;11.360;2022-11-20T01:06:18;9.60;99.90
5639;DHT22;2841;44.526;11.360;2022-11-20T01:08:45;9.60;99.90
5639;DHT22;2841;44.526;11.360;2022-11-20T01:11:15;9.60;99.90
5639;DHT22;2841;44.526;11.360;2022-11-20T01:13:43;9.60;99.90
5639;DHT22;2841;44.526;11.360;2022-11-20T01:16:13;9.60;99.90
5639;DHT22;2841;44.526;11.360;2022-11-20T01:18:43;9.50;99.90
5639;DHT22;2841;44.526;11.360;2022-11-20T01:21:11;9.50;99.90
5639;DHT22;2841;44.526;11.360;2022-11-20T01:23:41;9.50;99.90
5639;DHT22;2841;44.526;11.360;2022-11-20T01:26:10;9.50;99.90
5639;DHT22;2841;44.526;11.360;2022-11-20T01:28:38;9.50;99.90
5639;DHT22;2841;44.526;11.360;2022-11-20T01:31:13;9.50;99.90
5639;DHT22;2841;44.526;11.360;2022-11-20T01:33:41;9.50;99.90
5639;DHT22;2841;44.526;11.360;2022-11-20T01:36:09;9.50;99.90
5639;DHT22;2841;44.526;11.360;2022-11-20T01:38:36;9.50;99.90
5639;DHT22;2841;44.526;11.360;2022-11-20T01:41:05;9.50;99.90
5639;DHT22;2841;44.526;11.360;2022-11-20T01:43:33;9.50;99.90
5639;DHT22;2841;44.526;11.360;2022-11-20T01:46:15;9.50;99.90
5639;DHT22;2841;44.526;11.360;2022-11-20T01:48:47;9.50;99.90
5639;DHT22;2841;44.526;11.360;2022-11-20T01:51:21;9.40;99.90
5639;DHT22;2841;44.526;11.360;2022-11-20T01:53:48;9.50;99.90
5639;DHT22;2841;44.526;11.360;2022-11-20T01:56:17;9.50;99.90
5639;DHT22;2841;44.526;11.360;2022-11-20T01:58:55;9.50;99.90
5639;DHT22;2841;44.526;11.360;2022-11-20T02:01:24;9.50;99.90
5639;DHT22;2841;44.526;11.360;2022-11-20T02:03:51;9.50;99.90
5639;DHT22;2841;44.526;11.360;2022-11-20T02:06:22;9.50;99.90
5639;DHT22;2841;44.526;11.360;2022-11-20T02:08:50;9.50;99.90
5639;DHT22;2841;44.526;11.360;2022-11-20T02:11:18;9.50;99.90
5639;DHT22;2841;44.526;11.360;2022-11-20T02:13:45;9.50;99.90
5639;DHT22;2841;44.526;11.360;2022-11-20T02:16:19;9.50;99.90
5639;DHT22;2841;44.526;11.360;2022-11-20T02:18:49;9.50;99.90
5639;DHT22;2841;44.526;11.360;2022-11-20T02:21:34;9.50;99.90
5639;DHT22;2841;44.526;11.360;2022-11-20T02:24:07;9.60;99.90
5639;DHT22;2841;44.526;11.360;2022-11-20T02:26:40;9.60;99.90
5639;DHT22;2841;44.526;11.360;2022-11-20T02:29:08;9.60;99.90
5639;DHT22;2841;44.526;11.360;2022-11-20T02:31:39;9.60;99.90
5639;DHT22;2841;44.526;11.360;2022-11-20T02:34:07;9.60;99.90
5639;DHT22;2841;44.526;11.360;2022-11-20T02:36:35;9.50;99.90
5639;DHT22;2841;44.526;11.360;2022-11-20T02:39:05;9.50;99.90
5639;DHT22;2841;44.526;11.360;2022-11-20T02:41:33;9.50;99.90
5639;DHT22;2841;44.526;11.360;2022-11-20T02:44:01;9.50;99.90
5639;DHT22;2841;44.526;11.360;2022-11-20T02:46:28;9.50;99.90
5639;DHT22;2841;44.526;11.360;2022-11-20T02:48:55;9.50;99.90
5639;DHT22;2841;44.526;11.360;2022-11-20T02:51:22;9.50;99.90
5639;DHT22;2841;44.526;11.360;2022-11-20T02:53:50;9.50;99.90
5639;DHT22;2841;44.526;11.360;2022-11-20T02:56:18;9.50;99.90
5639;DHT22;2841;44.526;11.360;2022-11-20T02:58:45;9.50;99.90
5639;DHT22;2841;44.526;11.360;2022-11-20T03:01:12;9.50;99.90
5639;DHT22;2841;44.526;11.360;2022-11-20T03:03:39;9.50;99.90
5639;DHT22;2841;44.526;11.360;2022-11-20T03:06:06;9.40;99.90
5639;DHT22;2841;44.526;11.360;2022-11-20T03:08:34;9.40;99.90
5639;DHT22;2841;44.526;11.360;2022-11-20T03:11:05;9.50;99.90
5639;DHT22;2841;44.526;11.360;2022-11-20T03:13:35;9.50;99.90
5639;DHT22;2841;44.526;11.360;2022-11-20T03:16:07;9.50;99.90
5639;DHT22;2841;44.526;11.360;2022-11-20T03:18:34;9.50;99.90
5639;DHT22;2841;44.526;11.360;2022-11-20T03:21:01;9.40;99.90
5639;DHT22;2841;44.526;11.360;2022-11-20T03:23:29;9.40;99.90
5639;DHT22;2841;44.526;11.360;2022-11-20T03:26:06;9.40;99.90
5639;DHT22;2841;44.526;11.360;2022-11-20T03:28:34;9.40;99.90
5639;DHT22;2841;44.526;11.360;2022-11-20T03:31:06;9.40;99.90
5639;DHT22;2841;44.526;11.360;2022-11-20T03:33:33;9.40;99.90
5639;DHT22;2841;44.526;11.360;2022-11-20T03:36:01;9.40;99.90
5639;DHT22;2841;44.526;11.360;2022-11-20T03:38:29;9.30;99.90
5639;DHT22;2841;44.526;11.360;2022-11-20T03:40:59;9.30;99.90
5639;DHT22;2841;44.526;11.360;2022-11-20T03:43:26;9.30;99.90
5639;DHT22;2841;44.526;11.360;2022-11-20T03:45:55;9.30;99.90
5639;DHT22;2841;44.526;11.360;2022-11-20T03:48:22;9.30;99.90
5639;DHT22;2841;44.526;11.360;2022-11-20T03:50:49;9.20;99.90
5639;DHT22;2841;44.526;11.360;2022-11-20T03:53:16;9.20;99.90
5639;DHT22;2841;44.526;11.360;2022-11-20T03:55:43;9.20;99.90
5639;DHT22;2841;44.526;11.360;2022-11-20T03:58:11;9.20;99.90
5639;DHT22;2841;44.526;11.360;2022-11-20T04:00:39;9.20;99.90
5639;DHT22;2841;44.526;11.360;2022-11-20T04:03:07;9.20;99.90
5639;DHT22;2841;44.526;11.360;2022-11-20T04:05:34;9.20;99.90
5639;DHT22;2841;44.526;11.360;2022-11-20T04:08:01;9.20;99.90
5639;DHT22;2841;44.526;11.360;2022-11-20T04:10:28;9.20;99.90
5639;DHT22;2841;44.526;11.360;2022-11-20T04:12:55;9.10;99.90
5639;DHT22;2841;44.526;11.360;2022-11-20T04:15:22;9.10;99.90
5639;DHT22;2841;44.526;11.360;2022-11-20T04:17:49;9.10;99.90
5639;DHT22;2841;44.526;11.360;2022-11-20T04:20:18;9.10;99.90
5639;DHT22;2841;44.526;11.360;2022-11-20T04:22:45;9.10;99.90
5639;DHT22;2841;44.526;11.360;2022-11-20T04:25:12;9.10;99.90
5639;DHT22;2841;44.526;11.360;2022-11-20T04:27:39;9.10;99.90
5639;DHT22;2841;44.526;11.360;2022-11-20T04:30:07;9.10;99.90
5639;DHT22;2841;44.526;11.360;2022-11-20T04:32:34;9.10;99.90
5639;DHT22;2841;44.526;11.360;2022-11-20T04:35:01;9.10;99.90
5639;DHT22;2841;44.526;11.360;2022-11-20T04:37:29;9.10;99.90
5639;DHT22;2841;44.526;11.360;2022-11-20T04:39:56;9.10;99.90
5639;DHT22;2841;44.526;11.360;2022-11-20T04:42:23;9.20;99.90
5639;DHT22;2841;44.526;11.360;2022-11-20T04:44:57;9.20;99.90
5639;DHT22;2841;44.526;11.360;2022-11-20T04:47:24;9.10;99.90
5639;DHT22;2841;44.526;11.360;2022-11-20T04:49:51;9.10;99.90
5639;DHT22;2841;44.526;11.360;2022-11-20T04:52:18;9.10;99.90
5639;DHT22;2841;44.526;11.360;2022-11-20T04:54:47;9.10;99.90
5639;DHT22;2841;44.526;11.360;2022-11-20T04:57:14;9.00;99.90
5639;DHT22;2841;44.526;11.360;2022-11-20T04:59:42;9.00;99.90
5639;DHT22;2841;44.526;11.360;2022-11-20T05:02:09;9.00;99.90
5639;DHT22;2841;44.526;11.360;2022-11-20T05:04:36;9.00;99.90
5639;DHT22;2841;44.526;11.360;2022-11-20T05:07:03;9.00;99.90
5639;DHT22;2841;44.526;11.360;2022-11-20T05:09:30;9.00;99.90
5639;DHT22;2841;44.526;11.360;2022-11-20T05:11:59;9.00;99.90
5639;DHT22;2841;44.526;11.360;2022-11-20T05:14:26;9.00;99.90
5639;DHT22;2841;44.526;11.360;2022-11-20T05:16:53;9.00;99.90
5639;DHT22;2841;44.526;11.360;2022-11-20T05:19:20;9.00;99.90
5639;DHT22;2841;44.526;11.360;2022-11-20T05:21:47;9.00;99.90
5639;DHT22;2841;44.526;11.360;2022-11-20T05:24:14;9.00;99.90
5639;DHT22;2841;44.526;11.360;2022-11-20T05:26:41;8.90;99.90
5639;DHT22;2841;44.526;11.360;2022-11-20T05:29:12;8.90;99.90
5639;DHT22;2841;44.526;11.360;2022-11-20T05:31:39;8.90;99.90
5639;DHT22;2841;44.526;11.360;2022-11-20T05:34:07;8.90;99.90
5639;DHT22;2841;44.526;11.360;2022-11-20T05:36:34;8.90;99.90
5639;DHT22;2841;44.526;11.360;2022-11-20T05:39:02;8.90;99.90
5639;DHT22;2841;44.526;11.360;2022-11-20T05:41:29;8.90;99.90
5639;DHT22;2841;44.526;11.360;2022-11-20T05:43:56;8.90;99.90
5639;DHT22;2841;44.526;11.360;2022-11-20T05:46:26;8.90;99.90
5639;DHT22;2841;44.526;11.360;2022-11-20T05:48:54;8.90;99.90
5639;DHT22;2841;44.526;11.360;2022-11-20T05:51:21;8.90;99.90
5639;DHT22;2841;44.526;11.360;2022-11-20T05:53:48;8.90;99.90
5639;DHT22;2841;44.526;11.360;2022-11-20T05:56:17;8.90;99.90
5639;DHT22;2841;44.526;11.360;2022-11-20T05:58:44;8.90;99.90
5639;DHT22;2841;44.526;11.360;2022-11-20T06:01:14;8.90;99.90
5639;DHT22;2841;44.526;11.360;2022-11-20T06:03:43;8.90;99.90
5639;DHT22;2841;44.526;11.360;2022-11-20T06:06:13;8.90;99.90
5639;DHT22;2841;44.526;11.360;2022-11-20T06:08:40;8.90;99.90
5639;DHT22;2841;44.526;11.360;2022-11-20T06:11:09;8.90;99.90
5639;DHT22;2841;44.526;11.360;2022-11-20T06:13:38;8.90;99.90
5639;DHT22;2841;44.526;11.360;2022-11-20T06:16:05;8.80;99.90
5639;DHT22;2841;44.526;11.360;2022-11-20T06:18:32;8.80;99.90
5639;DHT22;2841;44.526;11.360;2022-11-20T06:21:02;8.80;99.90
5639;DHT22;2841;44.526;11.360;2022-11-20T06:23:30;8.80;99.90
5639;DHT22;2841;44.526;11.360;2022-11-20T06:25:58;8.80;99.90
5639;DHT22;2841;44.526;11.360;2022-11-20T06:28:27;8.80;99.90
5639;DHT22;2841;44.526;11.360;2022-11-20T06:30:54;8.80;99.90
5639;DHT22;2841;44.526;11.360;2022-11-20T06:33:21;8.80;99.90
5639;DHT22;2841;44.526;11.360;2022-11-20T06:35:48;8.80;99.90
5639;DHT22;2841;44.526;11.360;2022-11-20T06:38:16;8.90;99.90
5639;DHT22;2841;44.526;11.360;2022-11-20T06:40:44;8.80;99.90
5639;DHT22;2841;44.526;11.360;2022-11-20T06:43:11;8.90;99.90
5639;DHT22;2841;44.526;11.360;2022-11-20T06:45:38;8.90;99.90
5639;DHT22;2841;44.526;11.360;2022-11-20T06:48:05;8.90;99.90
5639;DHT22;2841;44.526;11.360;2022-11-20T06:50:32;8.90;99.90
5639;DHT22;2841;44.526;11.360;2022-11-20T06:53:01;8.90;99.90
5639;DHT22;2841;44.526;11.360;2022-11-20T06:55:30;8.90;99.90
5639;DHT22;2841;44.526;11.360;2022-11-20T06:57:58;8.90;99.90
5639;DHT22;2841;44.526;11.360;2022-11-20T07:00:25;8.90;99.90
5639;DHT22;2841;44.526;11.360;2022-11-20T07:02:52;8.90;99.90
5639;DHT22;2841;44.526;11.360;2022-11-20T07:05:19;8.90;99.90
5639;DHT22;2841;44.526;11.360;2022-11-20T07:07:46;9.00;99.90
5639;DHT22;2841;44.526;11.360;2022-11-20T07:10:14;9.00;99.90
5639;DHT22;2841;44.526;11.360;2022-11-20T07:12:42;9.00;99.90
5639;DHT22;2841;44.526;11.360;2022-11-20T07:15:09;9.00;99.90
5639;DHT22;2841;44.526;11.360;2022-11-20T07:17:36;9.10;99.90
5639;DHT22;2841;44.526;11.360;2022-11-20T07:20:03;9.10;99.90
5639;DHT22;2841;44.526;11.360;2022-11-20T07:22:30;9.20;99.90
5639;DHT22;2841;44.526;11.360;2022-11-20T07:24:57;9.20;99.90
5639;DHT22;2841;44.526;11.360;2022-11-20T07:27:24;9.30;99.90
5639;DHT22;2841;44.526;11.360;2022-11-20T07:29:53;9.30;99.90
5639;DHT22;2841;44.526;11.360;2022-11-20T07:32:20;9.30;99.90
5639;DHT22;2841;44.526;11.360;2022-11-20T07:34:48;9.40;99.90
5639;DHT22;2841;44.526;11.360;2022-11-20T07:37:15;9.40;99.90
5639;DHT22;2841;44.526;11.360;2022-11-20T07:39:42;9.50;99.90
5639;DHT22;2841;44.526;11.360;2022-11-20T07:42:09;9.50;99.90
5639;DHT22;2841;44.526;11.360;2022-11-20T07:44:37;9.60;99.90
5639;DHT22;2841;44.526;11.360;2022-11-20T07:47:06;9.70;99.90
5639;DHT22;2841;44.526;11.360;2022-11-20T07:49:33;9.70;99.90
5639;DHT22;2841;44.526;11.360;2022-11-20T07:52:00;9.70;99.90
5639;DHT22;2841;44.526;11.360;2022-11-20T07:54:27;9.80;99.90
5639;DHT22;2841;44.526;11.360;2022-11-20T07:56:54;9.90;99.90
5639;DHT22;2841;44.526;11.360;2022-11-20T07:59:21;9.90;99.90
5639;DHT22;2841;44.526;11.360;2022-11-20T08:01:48;10.00;99.90
5639;DHT22;2841;44.526;11.360;2022-11-20T08:04:17;10.00;99.90
5639;DHT22;2841;44.526;11.360;2022-11-20T08:06:44;10.10;99.90
5639;DHT22;2841;44.526;11.360;2022-11-20T08:09:11;10.10;99.90
5639;DHT22;2841;44.526;11.360;2022-11-20T08:11:38;10.20;99.90
5639;DHT22;2841;44.526;11.360;2022-11-20T08:14:22;10.30;99.90
5639;DHT22;2841;44.526;11.360;2022-11-20T08:16:50;10.30;99.90
5639;DHT22;2841;44.526;11.360;2022-11-20T08:19:18;10.40;99.90
5639;DHT22;2841;44.526;11.360;2022-11-20T08:21:46;10.50;99.90
5639;DHT22;2841;44.526;11.360;2022-11-20T08:24:13;10.50;99.90
5639;DHT22;2841;44.526;11.360;2022-11-20T08:26:40;10.60;99.90
5639;DHT22;2841;44.526;11.360;2022-11-20T08:29:07;10.60;99.90
5639;DHT22;2841;44.526;11.360;2022-11-20T08:31:35;10.70;99.90
5639;DHT22;2841;44.526;11.360;2022-11-20T08:34:02;10.80;99.90
5639;DHT22;2841;44.526;11.360;2022-11-20T08:36:33;10.90;99.90
5639;DHT22;2841;44.526;11.360;2022-11-20T08:39:00;10.80;99.90
5639;DHT22;2841;44.526;11.360;2022-11-20T08:41:29;10.80;99.90
5639;DHT22;2841;44.526;11.360;2022-11-20T08:43:59;10.80;99.90
5639;DHT22;2841;44.526;11.360;2022-11-20T08:46:31;10.90;99.90
5639;DHT22;2841;44.526;11.360;2022-11-20T08:49:00;11.00;99.90
5639;DHT22;2841;44.526;11.360;2022-11-20T08:51:27;11.10;99.90
5639;DHT22;2841;44.526;11.360;2022-11-20T08:53:55;11.20;99.90
5639;DHT22;2841;44.526;11.360;2022-11-20T08:56:22;11.30;99.90
5639;DHT22;2841;44.526;11.360;2022-11-20T08:58:50;11.40;99.90
5639;DHT22;2841;44.526;11.360;2022-11-20T09:01:18;11.50;99.90
5639;DHT22;2841;44.526;11.360;2022-11-20T09:03:45;11.60;99.90
5639;DHT22;2841;44.526;11.360;2022-11-20T09:06:13;11.50;99.90
5639;DHT22;2841;44.526;11.360;2022-11-20T09:08:40;11.40;99.90
5639;DHT22;2841;44.526;11.360;2022-11-20T09:11:09;11.50;99.90
5639;DHT22;2841;44.526;11.360;2022-11-20T09:13:36;11.60;99.90
5639;DHT22;2841;44.526;11.360;2022-11-20T09:16:06;11.60;99.90
5639;DHT22;2841;44.526;11.360;2022-11-20T09:18:34;11.80;99.90
5639;DHT22;2841;44.526;11.360;2022-11-20T09:21:04;12.00;99.90
5639;DHT22;2841;44.526;11.360;2022-11-20T09:23:33;12.00;99.90
5639;DHT22;2841;44.526;11.360;2022-11-20T09:26:02;12.00;99.90
5639;DHT22;2841;44.526;11.360;2022-11-20T09:28:31;12.00;99.90
5639;DHT22;2841;44.526;11.360;2022-11-20T09:30:59;12.10;99.90
5639;DHT22;2841;44.526;11.360;2022-11-20T09:33:26;12.10;99.90
5639;DHT22;2841;44.526;11.360;2022-11-20T09:35:53;12.10;99.90
5639;DHT22;2841;44.526;11.360;2022-11-20T09:38:20;12.10;99.90
5639;DHT22;2841;44.526;11.360;2022-11-20T09:40:53;12.00;99.90
5639;DHT22;2841;44.526;11.360;2022-11-20T09:43:29;12.00;99.90
5639;DHT22;2841;44.526;11.360;2022-11-20T09:46:06;12.10;99.90
5639;DHT22;2841;44.526;11.360;2022-11-20T09:48:47;12.20;99.90
5639;DHT22;2841;44.526;11.360;2022-11-20T09:51:25;12.20;99.90
5639;DHT22;2841;44.526;11.360;2022-11-20T09:54:02;12.30;99.90
5639;DHT22;2841;44.526;11.360;2022-11-20T09:56:33;12.40;99.90
5639;DHT22;2841;44.526;11.360;2022-11-20T09:59:04;12.50;99.90
5639;DHT22;2841;44.526;11.360;2022-11-20T10:01:36;12.50;99.90
5639;DHT22;2841;44.526;11.360;2022-11-20T10:04:10;12.60;99.90
5639;DHT22;2841;44.526;11.360;2022-11-20T10:06:41;12.60;99.90
5639;DHT22;2841;44.526;11.360;2022-11-20T10:09:18;12.60;99.90
5639;DHT22;2841;44.526;11.360;2022-11-20T10:11:56;12.70;99.90
5639;DHT22;2841;44.526;11.360;2022-11-20T10:14:32;12.80;99.90
5639;DHT22;2841;44.526;11.360;2022-11-20T10:17:10;12.90;99.90
5639;DHT22;2841;44.526;11.360;2022-11-20T10:19:47;13.00;99.90
5639;DHT22;2841;44.526;11.360;2022-11-20T10:22:31;13.10;99.90
5639;DHT22;2841;44.526;11.360;2022-11-20T10:25:06;13.20;99.90
5639;DHT22;2841;44.526;11.360;2022-11-20T10:30:42;13.30;99.90
5639;DHT22;2841;44.526;11.360;2022-11-20T10:33:15;13.40;99.90
5639;DHT22;2841;44.526;11.360;2022-11-20T10:35:45;13.40;99.90
5639;DHT22;2841;44.526;11.360;2022-11-20T10:38:19;13.50;99.90
5639;DHT22;2841;44.526;11.360;2022-11-20T10:40:51;13.50;99.90
5639;DHT22;2841;44.526;11.360;2022-11-20T10:43:23;13.50;99.90
5639;DHT22;2841;44.526;11.360;2022-11-20T10:45:57;13.60;99.90
5639;DHT22;2841;44.526;11.360;2022-11-20T10:48:27;13.70;99.90
5639;DHT22;2841;44.526;11.360;2022-11-20T10:51:04;13.80;99.90
5639;DHT22;2841;44.526;11.360;2022-11-20T10:53:47;13.90;99.90
5639;DHT22;2841;44.526;11.360;2022-11-20T10:56:21;13.90;99.90
5639;DHT22;2841;44.526;11.360;2022-11-20T10:59:02;13.90;99.90
5639;DHT22;2841;44.526;11.360;2022-11-20T11:01:29;14.00;99.90
5639;DHT22;2841;44.526;11.360;2022-11-20T11:03:58;14.10;99.90
5639;DHT22;2841;44.526;11.360;2022-11-20T11:06:29;14.00;99.90
5639;DHT22;2841;44.526;11.360;2022-11-20T11:09:03;14.10;99.90
5639;DHT22;2841;44.526;11.360;2022-11-20T11:11:32;14.20;99.90
5639;DHT22;2841;44.526;11.360;2022-11-20T11:14:06;14.30;99.90
5639;DHT22;2841;44.526;11.360;2022-11-20T11:16:34;14.40;99.90
5639;DHT22;2841;44.526;11.360;2022-11-20T11:19:07;14.40;99.90
5639;DHT22;2841;44.526;11.360;2022-11-20T11:21:38;14.50;99.90
5639;DHT22;2841;44.526;11.360;2022-11-20T11:24:19;14.60;99.90
5639;DHT22;2841;44.526;11.360;2022-11-20T11:26:52;14.60;99.90
5639;DHT22;2841;44.526;11.360;2022-11-20T11:29:19;14.70;99.90
5639;DHT22;2841;44.526;11.360;2022-11-20T11:31:46;14.70;99.90
5639;DHT22;2841;44.526;11.360;2022-11-20T11:34:16;14.80;99.90
5639;DHT22;2841;44.526;11.360;2022-11-20T11:36:57;14.80;99.90
5639;DHT22;2841;44.526;11.360;2022-11-20T11:39:26;14.80;99.90
5639;DHT22;2841;44.526;11.360;2022-11-20T11:41:54;14.80;99.90
5639;DHT22;2841;44.526;11.360;2022-11-20T11:44:23;14.80;99.90
5639;DHT22;2841;44.526;11.360;2022-11-20T11:47:11;14.80;99.90
5639;DHT22;2841;44.526;11.360;2022-11-20T11:49:43;15.00;99.90
5639;DHT22;2841;44.526;11.360;2022-11-20T11:52:14;15.00;99.90
5639;DHT22;2841;44.526;11.360;2022-11-20T11:54:47;15.00;99.90
5639;DHT22;2841;44.526;11.360;2022-11-20T11:57:22;15.00;99.90
5639;DHT22;2841;44.526;11.360;2022-11-20T11:59:59;15.10;99.90
5639;DHT22;2841;44.526;11.360;2022-11-20T12:02:36;15.30;99.90
5639;DHT22;2841;44.526;11.360;2022-11-20T12:05:16;15.30;99.90
5639;DHT22;2841;44.526;11.360;2022-11-20T12:07:47;15.30;99.90
5639;DHT22;2841;44.526;11.360;2022-11-20T12:10:21;15.30;99.90
5639;DHT22;2841;44.526;11.360;2022-11-20T12:12:52;15.30;99.90
5639;DHT22;2841;44.526;11.360;2022-11-20T12:15:27;15.40;99.90
5639;DHT22;2841;44.526;11.360;2022-11-20T12:17:55;15.40;99.90
5639;DHT22;2841;44.526;11.360;2022-11-20T12:20:26;15.50;99.90
5639;DHT22;2841;44.526;11.360;2022-11-20T12:23:00;15.60;99.90
5639;DHT22;2841;44.526;11.360;2022-11-20T12:25:30;15.60;99.90
5639;DHT22;2841;44.526;11.360;2022-11-20T12:28:34;15.60;99.90
5639;DHT22;2841;44.526;11.360;2022-11-20T12:31:25;15.80;99.90
5639;DHT22;2841;44.526;11.360;2022-11-20T12:34:05;15.90;99.90
5639;DHT22;2841;44.526;11.360;2022-11-20T12:36:42;16.20;99.90
5639;DHT22;2841;44.526;11.360;2022-11-20T12:39:40;16.60;99.90
5639;DHT22;2841;44.526;11.360;2022-11-20T12:42:20;17.60;99.90
5639;DHT22;2841;44.526;11.360;2022-11-20T12:45:31;17.70;99.90
5639;DHT22;2841;44.526;11.360;2022-11-20T12:51:05;17.30;99.90
5639;DHT22;2841;44.526;11.360;2022-11-20T12:53:40;17.30;99.90
5639;DHT22;2841;44.526;11.360;2022-11-20T12:56:17;17.70;99.90
5639;DHT22;2841;44.526;11.360;2022-11-20T12:59:02;18.10;99.90
5639;DHT22;2841;44.526;11.360;2022-11-20T13:01:40;18.00;98.40
5639;DHT22;2841;44.526;11.360;2022-11-20T13:04:23;17.50;99.90
5639;DHT22;2841;44.526;11.360;2022-11-20T13:06:54;18.60;99.90
5639;DHT22;2841;44.526;11.360;2022-11-20T13:09:24;19.10;95.40
5639;DHT22;2841;44.526;11.360;2022-11-20T13:11:59;19.20;94.30
5639;DHT22;2841;44.526;11.360;2022-11-20T13:14:34;18.40;94.70
5639;DHT22;2841;44.526;11.360;2022-11-20T13:17:07;18.10;97.30
5639;DHT22;2841;44.526;11.360;2022-11-20T13:19:37;18.10;97.30
5639;DHT22;2841;44.526;11.360;2022-11-20T13:22:04;17.90;98.00
5639;DHT22;2841;44.526;11.360;2022-11-20T13:24:32;18.30;96.40
5639;DHT22;2841;44.526;11.360;2022-11-20T13:27:01;18.60;95.30
5639;DHT22;2841;44.526;11.360;2022-11-20T13:29:29;18.50;93.40
5639;DHT22;2841;44.526;11.360;2022-11-20T13:32:06;18.20;93.30
5639;DHT22;2841;44.526;11.360;2022-11-20T13:34:50;18.20;93.30
5639;DHT22;2841;44.526;11.360;2022-11-20T13:37:25;19.00;92.60
5639;DHT22;2841;44.526;11.360;2022-11-20T13:40:05;21.10;89.10
5639;DHT22;2841;44.526;11.360;2022-11-20T13:42:36;21.40;84.20
5639;DHT22;2841;44.526;11.360;2022-11-20T13:45:10;20.40;84.60
5639;DHT22;2841;44.526;11.360;2022-11-20T13:47:47;19.40;86.30
5639;DHT22;2841;44.526;11.360;2022-11-20T13:50:15;19.10;86.40
5639;DHT22;2841;44.526;11.360;2022-11-20T13:52:49;18.70;86.10
5639;DHT22;2841;44.526;11.360;2022-11-20T13:55:23;18.40;87.10
5639;DHT22;2841;44.526;11.360;2022-11-20T13:58:15;19.80;86.40
5639;DHT22;2841;44.526;11.360;2022-11-20T14:00:50;19.80;82.80
5639;DHT22;2841;44.526;11.360;2022-11-20T14:03:20;19.20;84.90
5639;DHT22;2841;44.526;11.360;2022-11-20T14:05:51;19.40;83.30
5639;DHT22;2841;44.526;11.360;2022-11-20T14:08:27;18.40;82.50
5639;DHT22;2841;44.526;11.360;2022-11-20T14:11:14;17.60;84.90
5639;DHT22;2841;44.526;11.360;2022-11-20T14:13:53;16.80;86.10
5639;DHT22;2841;44.526;11.360;2022-11-20T14:16:21;16.20;87.30
5639;DHT22;2841;44.526;11.360;2022-11-20T14:18:48;15.70;88.60
5639;DHT22;2841;44.526;11.360;2022-11-20T14:21:22;15.30;89.40
5639;DHT22;2841;44.526;11.360;2022-11-20T14:23:53;15.10;90.10
5639;DHT22;2841;44.526;11.360;2022-11-20T14:26:22;14.70;90.40
5639;DHT22;2841;44.526;11.360;2022-11-20T14:28:50;14.60;90.80
5639;DHT22;2841;44.526;11.360;2022-11-20T14:31:23;14.60;91.20
5639;DHT22;2841;44.526;11.360;2022-11-20T14:33:52;14.60;91.50
5639;DHT22;2841;44.526;11.360;2022-11-20T14:36:21;14.70;91.70
5639;DHT22;2841;44.526;11.360;2022-11-20T14:38:49;14.80;91.80
5639;DHT22;2841;44.526;11.360;2022-11-20T14:41:18;15.10;91.60
5639;DHT22;2841;44.526;11.360;2022-11-20T14:43:47;15.40;91.40
5639;DHT22;2841;44.526;11.360;2022-11-20T14:46:16;15.60;90.90
5639;DHT22;2841;44.526;11.360;2022-11-20T14:48:46;15.40;90.60
5639;DHT22;2841;44.526;11.360;2022-11-20T14:51:27;15.00;90.70
5639;DHT22;2841;44.526;11.360;2022-11-20T14:53:55;14.80;91.10
5639;DHT22;2841;44.526;11.360;2022-11-20T14:56:23;14.60;91.40
5639;DHT22;2841;44.526;11.360;2022-11-20T14:58:58;14.40;91.80
5639;DHT22;2841;44.526;11.360;2022-11-20T15:01:26;14.30;92.00
5639;DHT22;2841;44.526;11.360;2022-11-20T15:04:00;14.20;92.30
5639;DHT22;2841;44.526;11.360;2022-11-20T15:06:28;14.10;92.60
5639;DHT22;2841;44.526;11.360;2022-11-20T15:08:56;13.90;92.90
5639;DHT22;2841;44.526;11.360;2022-11-20T15:11:28;13.80;93.20
5639;DHT22;2841;44.526;11.360;2022-11-20T15:13:58;13.70;93.60
5639;DHT22;2841;44.526;11.360;2022-11-20T15:16:29;13.50;93.90
5639;DHT22;2841;44.526;11.360;2022-11-20T15:18:56;13.40;94.50
5639;DHT22;2841;44.526;11.360;2022-11-20T15:21:23;13.20;94.90
5639;DHT22;2841;44.526;11.360;2022-11-20T15:23:50;13.10;95.50
5639;DHT22;2841;44.526;11.360;2022-11-20T15:26:23;13.00;96.10
5639;DHT22;2841;44.526;11.360;2022-11-20T15:28:51;12.90;96.80
5639;DHT22;2841;44.526;11.360;2022-11-20T15:31:21;12.80;97.40
5639;DHT22;2841;44.526;11.360;2022-11-20T15:33:48;12.60;98.10
5639;DHT22;2841;44.526;11.360;2022-11-20T15:36:16;12.50;98.90
5639;DHT22;2841;44.526;11.360;2022-11-20T15:38:43;12.40;99.90
5639;DHT22;2841;44.526;11.360;2022-11-20T15:41:10;12.30;99.90
5639;DHT22;2841;44.526;11.360;2022-11-20T15:43:37;12.20;99.90
5639;DHT22;2841;44.526;11.360;2022-11-20T15:46:08;12.00;99.90
5639;DHT22;2841;44.526;11.360;2022-11-20T15:48:39;11.90;99.90
5639;DHT22;2841;44.526;11.360;2022-11-20T15:51:17;11.80;99.90
5639;DHT22;2841;44.526;11.360;2022-11-20T15:53:47;11.70;99.90
5639;DHT22;2841;44.526;11.360;2022-11-20T15:56:14;11.60;99.90
5639;DHT22;2841;44.526;11.360;2022-11-20T15:58:42;11.50;99.90
5639;DHT22;2841;44.526;11.360;2022-11-20T16:01:10;11.40;99.90
5639;DHT22;2841;44.526;11.360;2022-11-20T16:03:40;11.30;99.90
5639;DHT22;2841;44.526;11.360;2022-11-20T16:06:07;11.20;99.90
5639;DHT22;2841;44.526;11.360;2022-11-20T16:08:34;11.10;99.90
5639;DHT22;2841;44.526;11.360;2022-11-20T16:11:01;11.00;99.90
5639;DHT22;2841;44.526;11.360;2022-11-20T16:13:30;11.00;99.90
5639;DHT22;2841;44.526;11.360;2022-11-20T16:16:20;10.90;99.90
5639;DHT22;2841;44.526;11.360;2022-11-20T16:18:49;10.80;99.90
5639;DHT22;2841;44.526;11.360;2022-11-20T16:21:16;10.80;99.90